Time;durP1;ratioP1;P1;durP2;ratioP2;P2;SDS_P1;SDS_P2;PMS_P1;PMS_P2;Temp;Humidity;BMP_temperature;BMP_pressure;BME280_temperature;BME280_humidity;BME280_pressure;Samples;Min_cycle;Max_cycle;Signal;HPM_P1;HPM_P2
2024/04/18 00:02:43;;;;;;;2.90;1.17;;;;;;;9.34;59.13;99681.56;11465626;25;20700;-63
2024/04/18 00:07:48;;;;;;;3.05;1.25;;;;;;;9.38;58.95;99683.84;11459463;25;20641;-62
2024/04/18 00:12:49;;;;;;;1.65;1.20;;;;;;;9.41;58.69;99696.00;11434770;25;20009;-63
2024/04/18 00:17:55;;;;;;;4.72;1.70;;;;;;;9.29;58.93;99681.09;11371208;25;19996;-62
2024/04/18 00:22:57;;;;;;;1.73;1.20;;;;;;;9.34;59.69;99693.03;11449401;25;20133;-63
2024/04/18 00:27:58;;;;;;;3.22;1.90;;;;;;;9.25;60.23;99684.97;11455929;25;19998;-63
2024/04/18 00:33:00;;;;;;;3.17;1.60;;;;;;;9.22;60.48;99698.50;11446525;25;20013;-63
2024/04/18 00:38:02;;;;;;;2.45;1.67;;;;;;;9.17;60.01;99682.97;11435383;25;20234;-63
2024/04/18 00:43:03;;;;;;;2.65;1.50;;;;;;;9.17;60.70;99688.28;11305229;25;20016;-63
2024/04/18 00:48:06;;;;;;;1.83;1.08;;;;;;;9.13;60.88;99687.72;11438302;25;20456;-63
2024/04/18 00:53:09;;;;;;;2.13;1.35;;;;;;;9.22;61.16;99693.19;11404117;25;20005;-66
2024/04/18 00:58:11;;;;;;;2.83;1.35;;;;;;;9.02;61.66;99695.72;11467171;25;19998;-65
2024/04/18 01:03:14;;;;;;;2.55;1.30;;;;;;;9.05;61.47;99700.75;11458290;25;19996;-66
2024/04/18 01:08:16;;;;;;;3.25;1.80;;;;;;;9.08;61.72;99700.50;11441231;25;20016;-65
2024/04/18 01:13:20;;;;;;;1.80;1.35;;;;;;;9.04;61.92;99683.16;11423835;25;20071;-66
2024/04/18 01:18:24;;;;;;;2.83;1.33;;;;;;;9.16;62.01;99700.72;11450921;25;20054;-66
2024/04/18 01:23:26;;;;;;;2.07;1.03;;;;;;;9.16;62.22;99702.53;11462680;25;20000;-67
2024/04/18 01:28:28;;;;;;;2.45;1.58;;;;;;;9.13;62.08;99708.94;11432607;25;20434;-65
2024/04/18 01:33:31;;;;;;;2.45;1.67;;;;;;;9.14;62.05;99705.34;11463045;25;20719;-65
2024/04/18 01:38:33;;;;;;;2.67;1.50;;;;;;;9.11;62.07;99710.91;11401690;25;20548;-67
2024/04/18 01:43:34;;;;;;;2.28;1.58;;;;;;;9.03;62.26;99713.34;11462992;25;20455;-65
2024/04/18 01:48:36;;;;;;;1.80;1.60;;;;;;;9.03;62.25;99719.47;11470108;25;20001;-65
2024/04/18 01:53:38;;;;;;;2.53;1.65;;;;;;;8.89;63.01;99732.19;11427882;25;20008;-67
2024/04/18 01:58:39;;;;;;;2.58;2.00;;;;;;;8.96;62.96;99728.94;11437572;25;20048;-66
2024/04/18 02:03:41;;;;;;;2.35;1.70;;;;;;;8.93;63.27;99723.00;11434683;25;20137;-66
2024/04/18 02:08:43;;;;;;;2.60;1.55;;;;;;;8.99;63.36;99738.44;11452514;25;20015;-66
2024/04/18 02:13:44;;;;;;;2.33;1.95;;;;;;;9.03;63.66;99742.53;11454689;25;20320;-65
2024/04/18 02:18:47;;;;;;;3.10;2.58;;;;;;;8.94;63.68;99732.69;11383469;25;20012;-65
2024/04/18 02:23:51;;;;;;;3.40;2.33;;;;;;;8.98;64.40;99750.03;11450025;25;20010;-66
2024/04/18 02:28:52;;;;;;;3.45;2.50;;;;;;;8.97;64.44;99743.03;11449049;25;20000;-65
2024/04/18 02:33:55;;;;;;;4.00;3.08;;;;;;;8.99;65.29;99749.06;11465615;25;20568;-66
2024/04/18 02:38:57;;;;;;;3.88;2.60;;;;;;;9.00;64.46;99761.38;11442268;25;20001;-66
2024/04/18 02:43:59;;;;;;;3.25;2.53;;;;;;;8.96;64.59;99752.81;11426439;25;20009;-65
2024/04/18 02:49:00;;;;;;;3.55;2.60;;;;;;;9.00;64.85;99756.91;11460702;25;20602;-66
2024/04/18 02:54:02;;;;;;;3.10;2.80;;;;;;;8.78;64.84;99757.81;11414527;25;20781;-65
2024/04/18 02:59:04;;;;;;;2.83;2.58;;;;;;;8.93;64.75;99761.03;11467763;25;20000;-65
2024/04/18 03:04:07;;;;;;;3.23;2.93;;;;;;;8.97;64.36;99761.63;11448619;25;20028;-66
2024/04/18 03:09:11;;;;;;;4.13;3.10;;;;;;;8.95;64.30;99760.91;11409038;25;19998;-66
2024/04/18 03:14:21;;;;;;;3.15;2.85;;;;;;;9.01;64.29;99769.22;11437547;25;20119;-65
2024/04/18 03:19:25;;;;;;;4.00;2.67;;;;;;;8.88;64.74;99767.69;11411173;25;20008;-67
2024/04/18 03:24:27;;;;;;;4.20;2.78;;;;;;;8.81;64.50;99765.53;11414710;25;20070;-65
2024/04/18 03:29:28;;;;;;;3.70;2.78;;;;;;;8.65;64.25;99752.66;11418668;25;20466;-66
2024/04/18 03:34:33;;;;;;;4.40;3.00;;;;;;;8.88;64.75;99788.91;11373025;25;20011;-65
2024/04/18 03:39:37;;;;;;;2.97;2.58;;;;;;;8.75;64.13;99789.91;11413413;25;20009;-66
2024/04/18 03:44:40;;;;;;;3.70;3.08;;;;;;;8.81;64.77;99794.72;11463683;25;20015;-65
2024/04/18 03:49:42;;;;;;;3.38;2.90;;;;;;;8.72;64.58;99792.81;11454929;25;20014;-66
2024/04/18 03:54:44;;;;;;;3.25;2.40;;;;;;;8.75;65.34;99816.44;11385032;25;20009;-65
2024/04/18 04:00:03;;;;;;;3.95;3.00;;;;;;;8.69;66.04;99814.25;11454469;25;20131;-66
2024/04/18 04:05:04;;;;;;;3.22;2.92;;;;;;;8.65;66.01;99816.31;11439655;25;20076;-65
2024/04/18 04:10:06;;;;;;;2.78;2.58;;;;;;;8.59;65.75;99818.63;11379374;25;20001;-65
2024/04/18 04:15:08;;;;;;;3.50;2.58;;;;;;;8.62;65.50;99810.44;11465949;25;20016;-67
2024/04/18 04:20:10;;;;;;;4.93;3.47;;;;;;;8.71;65.22;99828.28;11429661;25;20000;-66
2024/04/18 04:25:13;;;;;;;3.97;3.42;;;;;;;8.76;64.91;99838.50;11419284;25;20024;-67
2024/04/18 04:30:16;;;;;;;3.88;3.33;;;;;;;8.82;65.32;99844.16;11451420;25;20100;-65
2024/04/18 04:35:18;;;;;;;4.47;2.90;;;;;;;8.82;65.54;99851.28;11431964;25;20119;-65
2024/04/18 04:40:19;;;;;;;3.40;2.97;;;;;;;8.82;64.97;99857.44;11386917;25;20462;-67
2024/04/18 04:45:21;;;;;;;6.57;4.57;;;;;;;8.84;64.61;99866.13;11429367;25;20017;-65
2024/04/18 04:50:23;;;;;;;3.83;2.78;;;;;;;8.87;64.54;99878.31;11472121;25;20003;-66
2024/04/18 04:55:25;;;;;;;3.33;2.95;;;;;;;8.88;64.59;99880.00;11349294;25;20013;-66
2024/04/18 05:00:27;;;;;;;4.68;3.78;;;;;;;8.90;64.90;99882.53;11455962;25;20436;-65
2024/04/18 05:05:28;;;;;;;4.72;3.10;;;;;;;8.88;64.98;99895.09;11391478;25;20116;-65
2024/04/18 05:10:32;;;;;;;5.03;3.50;;;;;;;8.90;65.49;99895.81;11428498;25;21017;-66
2024/04/18 05:15:34;;;;;;;4.65;3.20;;;;;;;8.89;65.18;99902.94;11472103;25;20169;-67
2024/04/18 05:20:38;;;;;;;3.60;3.30;;;;;;;8.96;65.05;99911.25;11421091;25;20504;-66
2024/04/18 05:25:40;;;;;;;3.17;2.87;;;;;;;9.00;65.22;99913.53;11449914;25;20428;-64
2024/04/18 05:31:00;;;;;;;5.30;3.60;;;;;;;9.07;65.22;99927.19;11434473;25;20712;-65
2024/04/18 05:36:03;;;;;;;3.33;3.03;;;;;;;9.12;64.93;99934.78;11465480;25;20804;-66
2024/04/18 05:41:05;;;;;;;4.72;3.15;;;;;;;9.22;65.11;99942.84;11458539;25;20086;-66
2024/04/18 05:46:06;;;;;;;4.68;3.05;;;;;;;9.26;64.72;99941.63;11408989;25;20065;-66
2024/04/18 05:51:07;;;;;;;6.00;2.42;;;;;;;9.34;64.22;99955.16;11446741;25;20363;-65
2024/04/18 05:56:09;;;;;;;2.78;1.80;;;;;;;9.23;64.24;99957.81;11404059;25;20529;-66
2024/04/18 06:01:11;;;;;;;10.02;4.10;;;;;;;9.35;66.52;99967.47;11460295;25;20099;-67
2024/04/18 06:06:13;;;;;;;3.35;2.40;;;;;;;9.51;64.89;99980.38;11473928;25;20009;-66
2024/04/18 06:11:15;;;;;;;2.35;2.03;;;;;;;9.48;64.48;99978.78;11427635;25;20065;-66
2024/04/18 06:16:19;;;;;;;2.83;2.53;;;;;;;9.35;65.16;99984.25;11435248;25;20012;-65
2024/04/18 06:21:20;;;;;;;3.70;2.38;;;;;;;9.41;65.29;99992.69;11446864;25;20015;-66
2024/04/18 06:26:22;;;;;;;3.10;2.58;;;;;;;9.45;64.78;100005.59;11420358;25;20001;-68
2024/04/18 06:31:23;;;;;;;3.33;2.50;;;;;;;9.56;65.17;100015.38;11413303;25;20062;-71
2024/04/18 06:36:25;;;;;;;4.35;2.95;;;;;;;9.67;65.11;100019.84;11433893;25;20755;-68
2024/04/18 06:41:27;;;;;;;2.78;2.40;;;;;;;9.73;63.40;100019.34;11364256;25;20045;-67
2024/04/18 06:46:29;;;;;;;2.33;2.10;;;;;;;9.65;63.32;100032.41;11479529;25;20004;-67
2024/04/18 06:51:31;;;;;;;2.67;2.40;;;;;;;9.72;63.04;100033.59;11445237;25;20020;-67
2024/04/18 06:56:33;;;;;;;3.25;2.30;;;;;;;9.71;63.14;100037.22;11467290;25;19992;-67
2024/04/18 07:01:35;;;;;;;6.22;2.50;;;;;;;9.70;63.00;100044.34;11478036;25;20012;-67
2024/04/18 07:06:37;;;;;;;3.40;3.10;;;;;;;9.81;63.18;100051.47;11428869;25;20744;-66
2024/04/18 07:11:38;;;;;;;3.15;2.78;;;;;;;9.76;62.24;100060.75;11407328;25;20016;-66
2024/04/18 07:16:40;;;;;;;3.92;3.20;;;;;;;9.50;65.39;100055.72;11467662;25;20017;-68
2024/04/18 07:21:42;;;;;;;2.72;2.53;;;;;;;9.76;62.82;100061.63;11423317;25;20008;-70
2024/04/18 07:26:43;;;;;;;3.05;2.70;;;;;;;9.65;62.80;100074.91;11450934;25;20001;-67
2024/04/18 07:31:45;;;;;;;3.40;2.70;;;;;;;9.63;62.60;100060.91;11429562;25;20721;-67
2024/04/18 07:36:50;;;;;;;3.53;3.00;;;;;;;9.67;62.60;100078.31;11470795;25;20016;-68
2024/04/18 07:41:55;;;;;;;3.88;3.33;;;;;;;9.55;62.68;100096.91;11473266;25;20007;-66
2024/04/18 07:46:59;;;;;;;4.47;4.07;;;;;;;9.27;64.45;100089.41;11462155;25;19998;-68
2024/04/18 07:52:01;;;;;;;3.75;3.28;;;;;;;9.49;63.34;100092.09;11438698;25;20001;-67
2024/04/18 07:57:13;;;;;;;3.22;2.92;;;;;;;9.50;63.63;100104.41;11415869;25;20018;-69
2024/04/18 08:02:16;;;;;;;4.82;4.25;;;;;;;9.72;63.26;100116.00;11501432;25;20001;-69
2024/04/18 08:07:21;;;;;;;4.47;4.03;;;;;;;9.80;62.74;100121.53;11466650;25;20298;-67
2024/04/18 08:12:28;;;;;;;4.90;4.40;;;;;;;9.82;62.91;100137.41;11455321;25;19998;-67
2024/04/18 08:17:36;;;;;;;5.55;5.05;;;;;;;9.93;62.78;100136.53;11451532;25;20017;-68
2024/04/18 08:22:38;;;;;;;5.95;5.07;;;;;;;9.96;62.50;100138.94;11431029;25;19996;-68
2024/04/18 08:27:40;;;;;;;5.03;4.53;;;;;;;9.99;63.25;100157.31;11493284;25;20045;-67
2024/04/18 08:32:42;;;;;;;4.93;4.43;;;;;;;10.00;62.89;100159.03;11466954;25;19996;-68
2024/04/18 08:37:43;;;;;;;5.30;4.35;;;;;;;10.33;62.28;100171.44;11429430;25;20073;-68
2024/04/18 08:42:46;;;;;;;6.07;5.03;;;;;;;10.39;62.11;100164.78;11471837;25;20010;-69
2024/04/18 08:47:49;;;;;;;5.72;4.82;;;;;;;10.35;61.62;100168.66;11452823;25;20114;-68
2024/04/18 08:52:52;;;;;;;6.53;5.10;;;;;;;10.35;61.82;100179.31;11441345;25;20006;-69
2024/04/18 08:58:01;;;;;;;8.73;7.93;;;;;;;10.37;62.18;100177.34;11421003;25;20319;-70
2024/04/18 09:03:04;;;;;;;5.43;4.88;;;;;;;10.24;61.60;100157.03;11473073;25;20001;-68
2024/04/18 09:08:09;;;;;;;8.45;7.75;;;;;;;10.21;61.87;100199.00;11442634;25;20066;-69
2024/04/18 09:13:14;;;;;;;6.65;6.05;;;;;;;10.42;61.19;100193.81;11419359;25;21329;-69
2024/04/18 09:18:16;;;;;;;4.70;4.30;;;;;;;10.69;60.80;100203.16;11453083;25;20446;-68
2024/04/18 09:23:18;;;;;;;4.45;4.05;;;;;;;11.03;59.86;100195.06;11419492;25;19998;-67
2024/04/18 09:28:20;;;;;;;4.78;3.95;;;;;;;10.92;59.67;100209.28;11409346;25;20001;-68
2024/04/18 09:33:25;;;;;;;4.47;3.75;;;;;;;11.24;58.08;100203.06;11456501;25;20000;-68
2024/04/18 09:38:32;;;;;;;3.25;2.95;;;;;;;12.03;56.54;100206.09;11392937;25;20016;-67
2024/04/18 09:43:47;;;;;;;4.63;3.10;;;;;;;12.25;54.70;100204.22;11414091;25;20005;-67
2024/04/18 09:48:52;;;;;;;3.78;3.47;;;;;;;13.11;53.50;100205.47;11424316;25;19997;-68
2024/04/18 09:53:58;;;;;;;3.55;3.35;;;;;;;12.86;53.10;100187.16;11445540;25;20374;-70
2024/04/18 09:59:00;;;;;;;3.67;3.30;;;;;;;13.06;52.50;100205.84;11422347;25;20022;-67
2024/04/18 10:04:02;;;;;;;5.50;4.30;;;;;;;13.53;51.39;100215.84;11410183;25;20074;-70
2024/04/18 10:09:07;;;;;;;5.20;4.00;;;;;;;13.14;51.74;100223.88;11474538;25;20167;-67
2024/04/18 10:14:10;;;;;;;4.93;4.40;;;;;;;13.30;50.53;100221.50;11474668;25;20520;-69
2024/04/18 10:19:11;;;;;;;3.80;3.50;;;;;;;13.32;51.82;100211.50;11430982;25;20005;-68
2024/04/18 10:24:17;;;;;;;3.90;3.50;;;;;;;12.95;50.38;100224.72;11437251;25;20000;-68
2024/04/18 10:29:23;;;;;;;4.28;3.35;;;;;;;12.99;51.31;100218.13;11485633;25;20622;-67
2024/04/18 10:34:28;;;;;;;3.83;3.47;;;;;;;14.04;50.57;100225.28;11432128;25;20438;-68
2024/04/18 10:39:30;;;;;;;3.38;3.08;;;;;;;15.37;46.68;100210.47;11466210;25;19998;-67
2024/04/18 10:44:33;;;;;;;3.45;3.15;;;;;;;15.70;44.18;100208.03;11491986;25;19996;-67
2024/04/18 10:49:38;;;;;;;3.47;2.85;;;;;;;15.49;44.09;100208.41;11481285;25;22143;-68
2024/04/18 10:54:40;;;;;;;3.60;3.13;;;;;;;14.79;45.18;100225.19;11434729;25;20013;-67
2024/04/18 10:59:46;;;;;;;4.70;2.90;;;;;;;14.22;46.05;100230.69;11461442;25;20003;-68
2024/04/18 11:04:49;;;;;;;3.25;2.95;;;;;;;13.95;46.53;100234.19;11462879;25;20058;-68
2024/04/18 11:09:54;;;;;;;5.25;3.08;;;;;;;13.54;47.57;100241.59;11470126;25;20008;-69
2024/04/18 11:14:55;;;;;;;3.55;2.45;;;;;;;13.44;47.61;100234.44;11459799;25;20462;-69
2024/04/18 11:19:57;;;;;;;2.45;2.10;;;;;;;13.40;45.92;100232.19;11426165;25;20033;-66
2024/04/18 11:25:00;;;;;;;2.90;2.22;;;;;;;13.35;46.74;100229.94;11449223;25;20589;-66
2024/04/18 11:30:04;;;;;;;3.42;2.60;;;;;;;13.41;45.72;100245.41;11429238;25;20037;-68
2024/04/18 11:35:09;;;;;;;3.20;2.35;;;;;;;13.52;45.46;100240.91;11453528;25;20012;-67
2024/04/18 11:40:18;;;;;;;3.08;2.25;;;;;;;14.24;45.38;100234.06;11423177;25;20013;-68
2024/04/18 11:45:20;;;;;;;3.17;2.88;;;;;;;16.02;42.28;100232.56;11407964;25;20002;-67
2024/04/18 11:50:25;;;;;;;2.53;2.30;;;;;;;15.44;44.12;100229.47;11466969;25;20000;-69
2024/04/18 11:55:27;;;;;;;2.90;2.40;;;;;;;15.03;44.78;100231.81;11443257;25;20042;-67
2024/04/18 12:00:29;;;;;;;2.72;2.35;;;;;;;15.99;43.08;100225.66;11406382;25;20462;-68
2024/04/18 12:05:31;;;;;;;3.38;2.50;;;;;;;17.11;39.51;100217.47;11416152;25;20017;-68
2024/04/18 12:10:32;;;;;;;2.28;2.00;;;;;;;17.63;39.63;100211.72;11388581;25;20011;-69
2024/04/18 12:15:34;;;;;;;2.30;2.10;;;;;;;18.22;37.91;100215.16;11377043;25;20012;-68
2024/04/18 12:20:36;;;;;;;2.30;1.92;;;;;;;18.24;36.53;100221.19;11459095;25;20019;-68
2024/04/18 12:25:37;;;;;;;3.00;1.73;;;;;;;18.41;36.46;100206.66;11405058;25;20002;-69
2024/04/18 12:30:39;;;;;;;5.18;2.70;;;;;;;18.66;35.71;100209.19;11392751;25;20001;-70
2024/04/18 12:35:40;;;;;;;2.65;2.03;;;;;;;18.75;34.77;100210.00;11436125;25;20021;-71
2024/04/18 12:40:43;;;;;;;2.47;1.80;;;;;;;18.60;34.79;100210.78;11460565;25;20071;-72
2024/04/18 12:45:45;;;;;;;1.40;1.20;;;;;;;17.99;33.81;100194.34;11423542;25;20013;-71
2024/04/18 12:50:46;;;;;;;1.70;1.30;;;;;;;17.75;34.65;100211.41;11378007;25;20001;-65
2024/04/18 12:55:48;;;;;;;1.77;1.27;;;;;;;17.11;35.21;100212.94;11363062;25;20716;-66
2024/04/18 13:00:50;;;;;;;1.50;1.02;;;;;;;17.02;35.97;100205.88;11449873;25;20007;-66
2024/04/18 13:05:53;;;;;;;1.45;1.00;;;;;;;17.29;34.62;100206.53;11469177;25;20173;-67
2024/04/18 13:10:54;;;;;;;1.33;0.98;;;;;;;17.34;36.04;100211.41;11410734;25;19997;-66
2024/04/18 13:15:56;;;;;;;1.85;0.65;;;;;;;17.28;36.38;100189.56;11443020;25;20015;-69
2024/04/18 13:21:03;;;;;;;1.60;0.65;;;;;;;17.82;34.98;100193.53;11462277;25;20034;-68
2024/04/18 13:26:04;;;;;;;1.20;0.70;;;;;;;17.92;35.46;100188.81;11452561;25;19996;-68
2024/04/18 13:31:12;;;;;;;0.65;0.60;;;;;;;18.17;35.10;100192.25;11472536;25;19997;-67
2024/04/18 13:36:15;;;;;;;1.35;0.80;;;;;;;17.93;35.75;100173.50;11412234;25;20495;-67
2024/04/18 13:41:19;;;;;;;1.00;0.90;;;;;;;17.64;33.59;100196.44;11439717;25;20000;-65
2024/04/18 13:46:20;;;;;;;1.07;0.73;;;;;;;17.34;35.70;100206.91;11460195;25;20005;-66
2024/04/18 13:51:22;;;;;;;2.15;0.65;;;;;;;17.03;35.95;100209.41;11440610;25;20013;-65
2024/04/18 13:56:24;;;;;;;1.35;0.80;;;;;;;17.22;35.58;100217.16;11459733;25;20733;-67
2024/04/18 14:01:25;;;;;;;1.13;0.40;;;;;;;17.21;33.77;100214.63;11461748;25;20344;-68
2024/04/18 14:06:27;;;;;;;0.95;0.52;;;;;;;17.11;33.87;100206.72;11437941;25;20002;-67
2024/04/18 14:11:29;;;;;;;1.85;0.70;;;;;;;16.70;31.97;100201.25;11428916;25;20006;-68
2024/04/18 14:21:52;;;;;;;2.10;0.82;;;;;;;16.69;33.96;100196.88;11419450;25;20074;-64
2024/04/18 14:27:01;;;;;;;1.58;0.57;;;;;;;16.18;35.51;100187.00;11438328;25;19992;-66
2024/04/18 14:32:05;;;;;;;1.70;0.50;;;;;;;16.01;36.19;100209.41;11457717;25;20010;-67
2024/04/18 14:37:09;;;;;;;0.65;0.32;;;;;;;15.49;37.75;100211.06;11431982;25;20038;-67
2024/04/18 14:42:11;;;;;;;0.77;0.30;;;;;;;15.26;37.71;100209.88;11428819;25;20000;-66
2024/04/18 14:47:16;;;;;;;0.73;0.30;;;;;;;15.12;36.63;100213.97;11392499;25;20007;-67
2024/04/18 14:52:18;;;;;;;0.85;0.40;;;;;;;14.93;37.39;100214.94;11466188;25;20001;-66
2024/04/18 14:57:19;;;;;;;1.33;0.30;;;;;;;14.99;34.89;100215.16;11454976;25;20015;-66
2024/04/18 15:02:21;;;;;;;1.52;0.60;;;;;;;14.87;36.91;100215.56;11447614;25;20009;-65
2024/04/18 15:07:23;;;;;;;2.15;0.80;;;;;;;14.76;36.79;100222.81;11466346;25;20013;-65
2024/04/18 15:12:26;;;;;;;1.25;0.70;;;;;;;14.34;38.08;100220.66;11417664;25;20001;-68
2024/04/18 15:17:27;;;;;;;1.70;0.90;;;;;;;14.59;37.15;100218.25;11458086;25;20033;-66
2024/04/18 15:22:29;;;;;;;1.02;0.52;;;;;;;14.63;37.16;100203.59;11470590;25;20001;-67
2024/04/18 15:27:31;;;;;;;0.80;0.60;;;;;;;14.80;37.90;100218.84;11455523;25;20804;-64
2024/04/18 15:32:35;;;;;;;1.48;0.63;;;;;;;14.78;38.82;100218.16;11457656;25;20036;-66
2024/04/18 15:37:37;;;;;;;1.25;0.70;;;;;;;14.59;38.87;100215.56;11460156;25;19997;-66
2024/04/18 15:42:39;;;;;;;1.52;0.80;;;;;;;14.47;38.15;100207.75;11453196;25;20090;-66
2024/04/18 15:47:40;;;;;;;1.27;0.80;;;;;;;14.21;38.03;100209.44;11462746;25;20593;-65
2024/04/18 15:52:42;;;;;;;1.42;0.90;;;;;;;13.75;37.69;100203.97;11463478;25;20011;-65
2024/04/18 15:57:45;;;;;;;1.65;1.10;;;;;;;13.88;37.45;100217.88;11429462;25;20001;-65
2024/04/18 16:02:47;;;;;;;1.35;0.60;;;;;;;13.99;37.54;100206.16;11438901;25;20007;-65
2024/04/18 16:07:54;;;;;;;2.50;1.15;;;;;;;14.16;37.65;100223.25;11443263;25;20002;-65
2024/04/18 16:12:55;;;;;;;0.95;0.63;;;;;;;14.13;37.94;100213.69;11397498;25;20081;-66
2024/04/18 16:17:58;;;;;;;0.98;0.60;;;;;;;14.03;37.63;100228.94;11406307;25;20021;-66
2024/04/18 16:23:04;;;;;;;1.55;0.80;;;;;;;13.82;38.61;100228.31;11431884;25;20004;-65
2024/04/18 16:28:06;;;;;;;1.15;0.68;;;;;;;13.67;39.11;100236.78;11385320;25;20118;-65
2024/04/18 16:33:07;;;;;;;0.93;0.60;;;;;;;13.65;39.65;100241.44;11447828;25;20002;-65
2024/04/18 16:38:09;;;;;;;1.50;0.73;;;;;;;13.73;39.81;100254.09;11431484;25;20657;-66
2024/04/18 16:43:11;;;;;;;1.00;0.60;;;;;;;13.65;39.45;100245.97;11463143;25;20406;-66
2024/04/18 16:48:12;;;;;;;1.60;0.88;;;;;;;13.69;40.50;100228.63;11391111;25;20000;-65
2024/04/18 16:53:14;;;;;;;1.10;0.68;;;;;;;13.92;41.00;100255.91;11456093;25;20101;-66
2024/04/18 16:58:16;;;;;;;2.63;0.73;;;;;;;13.95;41.50;100251.09;11436411;25;20339;-65
2024/04/18 17:03:18;;;;;;;2.20;0.90;;;;;;;13.91;41.23;100251.53;11469660;25;20005;-67
2024/04/18 17:08:20;;;;;;;1.67;0.77;;;;;;;13.82;41.64;100247.88;11412274;25;20000;-65
2024/04/18 17:13:22;;;;;;;1.65;0.80;;;;;;;13.53;42.08;100245.28;11405455;25;20015;-66
2024/04/18 17:18:23;;;;;;;1.90;1.17;;;;;;;13.31;42.36;100255.25;11465635;25;20459;-64
2024/04/18 17:23:28;;;;;;;1.38;1.00;;;;;;;13.16;42.60;100257.47;11469558;25;20013;-66
2024/04/18 17:28:30;;;;;;;2.03;1.10;;;;;;;13.22;42.49;100262.25;11410687;25;20589;-66
2024/04/18 17:33:32;;;;;;;2.08;1.60;;;;;;;13.02;42.66;100257.91;11472447;25;20556;-65
2024/04/18 17:38:33;;;;;;;2.97;1.42;;;;;;;12.94;42.65;100279.13;11463891;25;20006;-66
2024/04/18 17:43:35;;;;;;;3.65;1.60;;;;;;;12.84;42.69;100268.44;11422587;25;20005;-66
2024/04/18 17:48:37;;;;;;;1.15;0.70;;;;;;;12.84;42.42;100279.97;11431559;25;20118;-65
2024/04/18 17:53:39;;;;;;;1.33;0.50;;;;;;;12.96;42.01;100294.03;11405528;25;20005;-66
2024/04/18 17:58:40;;;;;;;1.63;0.98;;;;;;;12.85;40.51;100296.81;11439737;25;20013;-65
2024/04/18 18:03:42;;;;;;;1.20;0.50;;;;;;;12.62;40.70;100289.03;11436291;25;20016;-65
2024/04/18 18:08:44;;;;;;;1.15;0.80;;;;;;;12.30;40.75;100284.72;11483871;25;20008;-65
2024/04/18 18:13:45;;;;;;;1.67;0.50;;;;;;;12.50;41.55;100303.47;11482027;25;21190;-66
2024/04/18 18:18:51;;;;;;;2.40;0.63;;;;;;;12.41;41.38;100298.94;11430498;25;20002;-67
2024/04/18 18:23:53;;;;;;;1.65;1.20;;;;;;;12.29;41.92;100315.03;11459779;25;20000;-67
2024/04/18 18:28:56;;;;;;;2.65;0.80;;;;;;;12.48;41.50;100316.97;11382215;25;20008;-66
2024/04/18 18:33:58;;;;;;;5.72;3.63;;;;;;;12.34;42.23;100294.16;11443308;25;20005;-66
2024/04/18 18:39:01;;;;;;;8.20;4.32;;;;;;;12.65;41.51;100326.16;11464993;25;20009;-64
2024/04/18 18:44:06;;;;;;;6.93;4.43;;;;;;;12.49;41.44;100307.09;11466710;25;20007;-65
2024/04/18 18:49:09;;;;;;;6.07;3.90;;;;;;;12.63;41.71;100341.47;11472212;25;20017;-66
2024/04/18 18:54:12;;;;;;;5.13;1.25;;;;;;;12.59;41.78;100340.03;11420532;25;20359;-65
2024/04/18 18:59:13;;;;;;;3.25;2.25;;;;;;;12.38;42.04;100348.97;11468161;25;20019;-64
2024/04/18 19:04:15;;;;;;;2.35;0.88;;;;;;;12.07;41.28;100340.06;11448766;25;20014;-64
2024/04/18 19:09:17;;;;;;;4.10;1.00;;;;;;;12.11;42.23;100351.31;11477052;25;20580;-65
2024/04/18 19:14:19;;;;;;;2.97;1.08;;;;;;;12.09;41.34;100364.78;11397145;25;20005;-65
2024/04/18 19:19:24;;;;;;;2.35;0.90;;;;;;;12.17;41.84;100348.13;11465826;25;19998;-65
2024/04/18 19:24:26;;;;;;;2.22;0.90;;;;;;;11.89;41.49;100363.78;11470874;25;20507;-65
2024/04/18 19:29:28;;;;;;;3.67;0.85;;;;;;;11.89;41.25;100363.78;11437117;25;20634;-65
2024/04/18 19:34:46;;;;;;;2.58;0.80;;;;;;;11.81;43.13;100366.25;11460429;25;19993;-65
2024/04/18 19:39:49;;;;;;;3.00;1.00;;;;;;;11.89;41.52;100357.59;11479134;25;20052;-66
2024/04/18 19:44:54;;;;;;;4.13;2.95;;;;;;;11.83;41.84;100348.31;11448408;25;20000;-65
2024/04/18 19:49:55;;;;;;;4.80;2.33;;;;;;;11.95;42.58;100351.78;11472816;25;19995;-65
2024/04/18 19:54:57;;;;;;;1.98;1.08;;;;;;;11.95;42.77;100360.63;11473315;25;20467;-65
2024/04/18 19:59:58;;;;;;;4.47;2.47;;;;;;;11.93;42.71;100354.56;11404983;25;20009;-67
2024/04/18 20:05:00;;;;;;;3.67;1.63;;;;;;;11.84;43.32;100342.84;11425194;25;20077;-65
2024/04/18 20:10:02;;;;;;;11.40;10.15;;;;;;;11.88;43.34;100356.75;11425650;25;20000;-64
2024/04/18 20:15:04;;;;;;;4.57;4.05;;;;;;;11.88;43.75;100364.75;11479690;25;20000;-65
2024/04/18 20:20:07;;;;;;;2.72;1.50;;;;;;;11.82;43.55;100358.13;11491752;25;19996;-65
2024/04/18 20:25:09;;;;;;;2.17;0.88;;;;;;;11.58;43.48;100339.69;11474415;25;20000;-65
2024/04/18 20:30:11;;;;;;;5.07;3.67;;;;;;;11.70;44.13;100336.97;11445779;25;19995;-66
2024/04/18 20:35:13;;;;;;;2.58;1.52;;;;;;;11.62;43.62;100334.94;11483510;25;20623;-66
2024/04/18 20:40:15;;;;;;;3.53;1.58;;;;;;;11.68;44.62;100339.78;11432202;25;19997;-66
2024/04/18 20:45:17;;;;;;;2.47;1.10;;;;;;;11.65;44.17;100351.53;11425215;25;20603;-66
2024/04/18 20:50:19;;;;;;;3.03;1.20;;;;;;;11.48;44.07;100338.75;11437131;25;19998;-66
2024/04/18 20:55:21;;;;;;;1.67;0.90;;;;;;;11.61;44.80;100344.75;11462227;25;20306;-65
2024/04/18 21:00:22;;;;;;;3.42;1.00;;;;;;;11.54;44.13;100342.75;11398160;25;19997;-66
2024/04/18 21:05:27;;;;;;;3.40;1.27;;;;;;;11.54;45.07;100356.91;11391611;25;20055;-66
2024/04/18 21:10:29;;;;;;;2.75;1.00;;;;;;;11.54;45.31;100358.72;11401504;25;20016;-66
2024/04/18 21:15:31;;;;;;;1.67;0.73;;;;;;;11.50;44.75;100342.16;11423244;25;20740;-66
2024/04/18 21:20:35;;;;;;;1.80;1.00;;;;;;;11.43;45.50;100338.31;11432881;25;20029;-65
2024/04/18 21:25:38;;;;;;;3.35;1.50;;;;;;;11.48;45.26;100344.09;11462973;25;20607;-66
2024/04/18 21:30:42;;;;;;;2.15;0.60;;;;;;;11.47;45.26;100340.59;11446525;25;20026;-65
2024/04/18 21:35:47;;;;;;;1.73;0.57;;;;;;;11.36;45.20;100340.63;11440849;25;20000;-65
2024/04/18 21:40:48;;;;;;;1.23;0.70;;;;;;;11.36;45.20;100335.28;11420795;25;20069;-65
2024/04/18 21:45:49;;;;;;;3.00;1.00;;;;;;;11.31;45.16;100327.66;11435987;25;19996;-65
2024/04/18 21:50:51;;;;;;;3.80;1.27;;;;;;;11.31;45.75;100327.66;11454276;25;20067;-66
2024/04/18 21:55:53;;;;;;;1.20;0.68;;;;;;;11.31;46.20;100324.16;11408363;25;20011;-66
2024/04/18 22:00:54;;;;;;;4.18;1.20;;;;;;;11.24;46.16;100321.16;11436084;25;20013;-66
2024/04/18 22:05:57;;;;;;;1.58;0.93;;;;;;;11.18;46.48;100329.66;11449471;25;20080;-66
2024/04/18 22:10:59;;;;;;;0.93;0.60;;;;;;;11.13;46.74;100323.88;11389661;25;20652;-66
2024/04/18 22:16:00;;;;;;;1.27;0.85;;;;;;;11.06;46.99;100325.31;11366311;25;20005;-66
2024/04/18 22:21:02;;;;;;;2.17;0.90;;;;;;;11.11;47.35;100328.47;11426105;25;20748;-66
2024/04/18 22:26:04;;;;;;;3.33;1.23;;;;;;;11.05;47.82;100318.28;11372216;25;20017;-65
2024/04/18 22:31:06;;;;;;;1.40;1.00;;;;;;;11.04;49.00;100316.63;11405855;25;19994;-67
2024/04/18 22:36:08;;;;;;;2.75;1.23;;;;;;;11.02;48.35;100321.22;11417755;25;20023;-67
2024/04/18 22:41:11;;;;;;;3.25;1.13;;;;;;;10.82;48.22;100293.53;11398253;25;20114;-67
2024/04/18 22:46:12;;;;;;;3.85;1.33;;;;;;;10.79;48.64;100319.47;11414699;25;19998;-65
2024/04/18 22:51:14;;;;;;;2.17;1.40;;;;;;;10.74;49.40;100307.47;11450748;25;19997;-66
2024/04/18 22:56:16;;;;;;;2.47;1.17;;;;;;;10.78;49.05;100324.91;11415336;25;20017;-66
2024/04/18 23:01:17;;;;;;;1.92;1.27;;;;;;;10.83;49.16;100321.88;11457323;25;20029;-66
2024/04/18 23:06:19;;;;;;;2.85;1.38;;;;;;;10.60;49.61;100296.13;11428419;25;19997;-66
2024/04/18 23:11:21;;;;;;;3.35;1.60;;;;;;;10.52;49.61;100301.19;11469169;25;19997;-66
2024/04/18 23:16:23;;;;;;;2.90;1.30;;;;;;;10.47;49.79;100306.03;11466328;25;20017;-65
2024/04/18 23:21:25;;;;;;;3.35;1.23;;;;;;;10.22;50.48;100304.44;11428896;25;20001;-66
2024/04/18 23:26:26;;;;;;;5.20;1.20;;;;;;;10.16;50.89;100297.78;11430726;25;20040;-66